sensor_id;sensor_type;location;lat;lon;timestamp;P1;durP1;ratioP1;P2;durP2;ratioP2
46815;SDS011;32787;53.316;8.670;2023-07-20T00:01:03;7.85;;;4.15;;
46815;SDS011;32787;53.316;8.670;2023-07-20T00:03:29;9.27;;;4.00;;
46815;SDS011;32787;53.316;8.670;2023-07-20T00:05:55;6.45;;;3.70;;
46815;SDS011;32787;53.316;8.670;2023-07-20T00:08:20;6.78;;;4.15;;
46815;SDS011;32787;53.316;8.670;2023-07-20T00:10:46;6.60;;;3.78;;
46815;SDS011;32787;53.316;8.670;2023-07-20T00:13:11;6.72;;;3.95;;
46815;SDS011;32787;53.316;8.670;2023-07-20T00:15:37;7.20;;;3.80;;
46815;SDS011;32787;53.316;8.670;2023-07-20T00:18:06;5.70;;;3.53;;
46815;SDS011;32787;53.316;8.670;2023-07-20T00:20:32;5.35;;;3.40;;
46815;SDS011;32787;53.316;8.670;2023-07-20T00:22:58;7.50;;;3.38;;
46815;SDS011;32787;53.316;8.670;2023-07-20T00:25:24;6.43;;;4.05;;
46815;SDS011;32787;53.316;8.670;2023-07-20T00:27:50;5.72;;;3.20;;
46815;SDS011;32787;53.316;8.670;2023-07-20T00:30:16;5.43;;;3.00;;
46815;SDS011;32787;53.316;8.670;2023-07-20T00:32:42;5.85;;;3.03;;
46815;SDS011;32787;53.316;8.670;2023-07-20T00:35:08;6.35;;;3.22;;
46815;SDS011;32787;53.316;8.670;2023-07-20T00:37:34;5.20;;;2.88;;
46815;SDS011;32787;53.316;8.670;2023-07-20T00:40:00;5.38;;;2.92;;
46815;SDS011;32787;53.316;8.670;2023-07-20T00:42:26;5.57;;;3.03;;
46815;SDS011;32787;53.316;8.670;2023-07-20T00:44:51;6.00;;;3.33;;
46815;SDS011;32787;53.316;8.670;2023-07-20T00:47:17;6.97;;;2.83;;
46815;SDS011;32787;53.316;8.670;2023-07-20T00:49:43;5.30;;;2.70;;
46815;SDS011;32787;53.316;8.670;2023-07-20T00:52:09;5.32;;;3.10;;
46815;SDS011;32787;53.316;8.670;2023-07-20T00:54:37;5.45;;;3.00;;
46815;SDS011;32787;53.316;8.670;2023-07-20T00:57:02;5.95;;;3.13;;
46815;SDS011;32787;53.316;8.670;2023-07-20T00:59:29;6.05;;;2.95;;
46815;SDS011;32787;53.316;8.670;2023-07-20T01:01:55;5.13;;;2.67;;
46815;SDS011;32787;53.316;8.670;2023-07-20T01:04:21;5.93;;;3.05;;
46815;SDS011;32787;53.316;8.670;2023-07-20T01:09:39;4.70;;;2.60;;
46815;SDS011;32787;53.316;8.670;2023-07-20T01:12:13;4.75;;;2.67;;
46815;SDS011;32787;53.316;8.670;2023-07-20T01:14:46;5.97;;;2.63;;
46815;SDS011;32787;53.316;8.670;2023-07-20T01:17:12;5.93;;;2.67;;
46815;SDS011;32787;53.316;8.670;2023-07-20T01:19:38;6.20;;;3.03;;
46815;SDS011;32787;53.316;8.670;2023-07-20T01:30:35;7.72;;;3.28;;
46815;SDS011;32787;53.316;8.670;2023-07-20T01:33:25;5.68;;;3.33;;
46815;SDS011;32787;53.316;8.670;2023-07-20T01:35:55;5.85;;;3.40;;
46815;SDS011;32787;53.316;8.670;2023-07-20T01:38:23;8.35;;;3.10;;
46815;SDS011;32787;53.316;8.670;2023-07-20T01:40:49;6.13;;;3.55;;
46815;SDS011;32787;53.316;8.670;2023-07-20T01:43:16;8.02;;;3.58;;
46815;SDS011;32787;53.316;8.670;2023-07-20T01:45:43;5.95;;;3.55;;
46815;SDS011;32787;53.316;8.670;2023-07-20T01:48:09;7.50;;;3.65;;
46815;SDS011;32787;53.316;8.670;2023-07-20T01:50:35;6.47;;;3.30;;
46815;SDS011;32787;53.316;8.670;2023-07-20T01:53:01;6.85;;;3.38;;
46815;SDS011;32787;53.316;8.670;2023-07-20T01:55:26;6.63;;;3.60;;
46815;SDS011;32787;53.316;8.670;2023-07-20T01:57:52;6.43;;;3.40;;
46815;SDS011;32787;53.316;8.670;2023-07-20T02:00:18;6.10;;;3.60;;
46815;SDS011;32787;53.316;8.670;2023-07-20T02:02:46;6.47;;;3.60;;
46815;SDS011;32787;53.316;8.670;2023-07-20T02:05:12;8.15;;;3.70;;
46815;SDS011;32787;53.316;8.670;2023-07-20T02:07:37;6.40;;;3.60;;
46815;SDS011;32787;53.316;8.670;2023-07-20T02:10:03;7.47;;;3.88;;
46815;SDS011;32787;53.316;8.670;2023-07-20T02:12:29;6.60;;;4.18;;
46815;SDS011;32787;53.316;8.670;2023-07-20T02:14:55;6.32;;;4.13;;
46815;SDS011;32787;53.316;8.670;2023-07-20T02:17:20;7.28;;;3.90;;
46815;SDS011;32787;53.316;8.670;2023-07-20T02:19:46;7.25;;;4.40;;
46815;SDS011;32787;53.316;8.670;2023-07-20T02:22:14;7.60;;;3.72;;
46815;SDS011;32787;53.316;8.670;2023-07-20T02:24:41;7.95;;;4.00;;
46815;SDS011;32787;53.316;8.670;2023-07-20T02:27:07;10.27;;;4.25;;
46815;SDS011;32787;53.316;8.670;2023-07-20T02:29:33;7.00;;;4.10;;
46815;SDS011;32787;53.316;8.670;2023-07-20T02:31:59;8.18;;;4.50;;
46815;SDS011;32787;53.316;8.670;2023-07-20T02:34:24;6.15;;;3.85;;
46815;SDS011;32787;53.316;8.670;2023-07-20T02:36:50;6.45;;;4.07;;
46815;SDS011;32787;53.316;8.670;2023-07-20T02:39:15;7.50;;;4.13;;
46815;SDS011;32787;53.316;8.670;2023-07-20T02:41:41;7.82;;;4.57;;
46815;SDS011;32787;53.316;8.670;2023-07-20T02:44:07;7.28;;;4.80;;
46815;SDS011;32787;53.316;8.670;2023-07-20T02:46:32;8.00;;;4.70;;
46815;SDS011;32787;53.316;8.670;2023-07-20T02:48:59;8.13;;;4.50;;
46815;SDS011;32787;53.316;8.670;2023-07-20T02:51:25;7.10;;;4.30;;
46815;SDS011;32787;53.316;8.670;2023-07-20T02:53:50;9.10;;;4.63;;
46815;SDS011;32787;53.316;8.670;2023-07-20T02:56:16;8.60;;;4.57;;
46815;SDS011;32787;53.316;8.670;2023-07-20T02:58:43;8.40;;;4.57;;
46815;SDS011;32787;53.316;8.670;2023-07-20T03:01:09;7.05;;;4.43;;
46815;SDS011;32787;53.316;8.670;2023-07-20T03:03:37;6.82;;;4.55;;
46815;SDS011;32787;53.316;8.670;2023-07-20T03:06:03;8.60;;;4.75;;
46815;SDS011;32787;53.316;8.670;2023-07-20T03:08:29;7.18;;;4.70;;
46815;SDS011;32787;53.316;8.670;2023-07-20T03:10:55;9.05;;;5.05;;
46815;SDS011;32787;53.316;8.670;2023-07-20T03:13:20;6.43;;;4.20;;
46815;SDS011;32787;53.316;8.670;2023-07-20T03:15:46;7.45;;;4.63;;
46815;SDS011;32787;53.316;8.670;2023-07-20T03:18:12;7.10;;;4.43;;
46815;SDS011;32787;53.316;8.670;2023-07-20T03:20:38;8.65;;;5.07;;
46815;SDS011;32787;53.316;8.670;2023-07-20T03:23:03;8.15;;;4.93;;
46815;SDS011;32787;53.316;8.670;2023-07-20T03:25:29;9.75;;;4.57;;
46815;SDS011;32787;53.316;8.670;2023-07-20T03:27:55;8.88;;;4.60;;
46815;SDS011;32787;53.316;8.670;2023-07-20T03:30:20;7.95;;;4.07;;
46815;SDS011;32787;53.316;8.670;2023-07-20T03:32:46;7.93;;;4.80;;
46815;SDS011;32787;53.316;8.670;2023-07-20T03:35:12;6.50;;;4.10;;
46815;SDS011;32787;53.316;8.670;2023-07-20T03:37:37;6.70;;;4.38;;
46815;SDS011;32787;53.316;8.670;2023-07-20T03:40:03;8.93;;;4.50;;
46815;SDS011;32787;53.316;8.670;2023-07-20T03:42:30;7.85;;;4.65;;
46815;SDS011;32787;53.316;8.670;2023-07-20T03:44:55;7.20;;;4.32;;
46815;SDS011;32787;53.316;8.670;2023-07-20T03:47:21;8.02;;;4.43;;
46815;SDS011;32787;53.316;8.670;2023-07-20T03:49:47;7.97;;;4.13;;
46815;SDS011;32787;53.316;8.670;2023-07-20T03:52:12;9.43;;;4.32;;
46815;SDS011;32787;53.316;8.670;2023-07-20T03:54:38;9.07;;;4.70;;
46815;SDS011;32787;53.316;8.670;2023-07-20T03:57:04;7.47;;;4.45;;
46815;SDS011;32787;53.316;8.670;2023-07-20T03:59:29;7.60;;;4.57;;
46815;SDS011;32787;53.316;8.670;2023-07-20T04:01:55;7.38;;;4.43;;
46815;SDS011;32787;53.316;8.670;2023-07-20T04:04:21;7.35;;;4.43;;
46815;SDS011;32787;53.316;8.670;2023-07-20T04:06:46;8.77;;;4.15;;
46815;SDS011;32787;53.316;8.670;2023-07-20T04:09:12;8.15;;;4.55;;
46815;SDS011;32787;53.316;8.670;2023-07-20T04:11:38;6.53;;;4.03;;
46815;SDS011;32787;53.316;8.670;2023-07-20T04:14:04;7.18;;;4.18;;
46815;SDS011;32787;53.316;8.670;2023-07-20T04:16:29;7.50;;;4.35;;
46815;SDS011;32787;53.316;8.670;2023-07-20T04:18:55;7.20;;;4.40;;
46815;SDS011;32787;53.316;8.670;2023-07-20T04:21:21;9.20;;;4.40;;
46815;SDS011;32787;53.316;8.670;2023-07-20T04:23:47;8.02;;;4.63;;
46815;SDS011;32787;53.316;8.670;2023-07-20T04:26:13;10.02;;;5.70;;
46815;SDS011;32787;53.316;8.670;2023-07-20T04:28:39;8.25;;;5.07;;
46815;SDS011;32787;53.316;8.670;2023-07-20T04:31:11;8.15;;;5.20;;
46815;SDS011;32787;53.316;8.670;2023-07-20T04:33:40;10.93;;;5.10;;
46815;SDS011;32787;53.316;8.670;2023-07-20T04:36:06;9.32;;;5.22;;
46815;SDS011;32787;53.316;8.670;2023-07-20T04:38:32;8.50;;;5.03;;
46815;SDS011;32787;53.316;8.670;2023-07-20T04:40:58;10.50;;;5.50;;
46815;SDS011;32787;53.316;8.670;2023-07-20T04:43:24;7.93;;;4.97;;
46815;SDS011;32787;53.316;8.670;2023-07-20T04:45:49;9.02;;;5.10;;
46815;SDS011;32787;53.316;8.670;2023-07-20T04:48:16;8.20;;;5.47;;
46815;SDS011;32787;53.316;8.670;2023-07-20T04:50:43;9.27;;;5.75;;
46815;SDS011;32787;53.316;8.670;2023-07-20T04:53:10;6.90;;;4.97;;
46815;SDS011;32787;53.316;8.670;2023-07-20T04:55:39;8.48;;;5.47;;
46815;SDS011;32787;53.316;8.670;2023-07-20T04:58:05;9.05;;;5.90;;
46815;SDS011;32787;53.316;8.670;2023-07-20T05:00:34;8.68;;;5.50;;
46815;SDS011;32787;53.316;8.670;2023-07-20T05:03:00;9.38;;;5.22;;
46815;SDS011;32787;53.316;8.670;2023-07-20T05:05:25;8.20;;;5.07;;
46815;SDS011;32787;53.316;8.670;2023-07-20T05:07:51;9.23;;;5.45;;
46815;SDS011;32787;53.316;8.670;2023-07-20T05:10:17;7.70;;;4.93;;
46815;SDS011;32787;53.316;8.670;2023-07-20T05:12:43;8.70;;;5.00;;
46815;SDS011;32787;53.316;8.670;2023-07-20T05:15:08;11.20;;;4.90;;
46815;SDS011;32787;53.316;8.670;2023-07-20T05:17:35;9.07;;;4.55;;
46815;SDS011;32787;53.316;8.670;2023-07-20T05:20:00;7.03;;;4.30;;
46815;SDS011;32787;53.316;8.670;2023-07-20T05:22:26;9.55;;;4.60;;
46815;SDS011;32787;53.316;8.670;2023-07-20T05:24:51;5.93;;;4.05;;
46815;SDS011;32787;53.316;8.670;2023-07-20T05:27:17;6.45;;;3.88;;
46815;SDS011;32787;53.316;8.670;2023-07-20T05:29:44;9.48;;;4.05;;
46815;SDS011;32787;53.316;8.670;2023-07-20T05:32:10;9.18;;;4.10;;
46815;SDS011;32787;53.316;8.670;2023-07-20T05:34:35;8.10;;;3.58;;
46815;SDS011;32787;53.316;8.670;2023-07-20T05:37:01;9.40;;;4.18;;
46815;SDS011;32787;53.316;8.670;2023-07-20T05:39:26;6.15;;;3.03;;
46815;SDS011;32787;53.316;8.670;2023-07-20T05:41:52;5.38;;;3.17;;
46815;SDS011;32787;53.316;8.670;2023-07-20T05:44:17;5.85;;;2.63;;
46815;SDS011;32787;53.316;8.670;2023-07-20T05:46:43;5.82;;;2.88;;
46815;SDS011;32787;53.316;8.670;2023-07-20T05:49:09;7.05;;;2.78;;
46815;SDS011;32787;53.316;8.670;2023-07-20T05:51:35;4.50;;;2.00;;
46815;SDS011;32787;53.316;8.670;2023-07-20T05:54:01;6.00;;;2.60;;
46815;SDS011;32787;53.316;8.670;2023-07-20T05:56:27;5.55;;;2.80;;
46815;SDS011;32787;53.316;8.670;2023-07-20T05:58:52;7.72;;;2.60;;
46815;SDS011;32787;53.316;8.670;2023-07-20T06:01:18;6.97;;;2.30;;
46815;SDS011;32787;53.316;8.670;2023-07-20T06:03:44;5.07;;;2.50;;
46815;SDS011;32787;53.316;8.670;2023-07-20T06:06:09;6.97;;;2.40;;
46815;SDS011;32787;53.316;8.670;2023-07-20T06:08:37;5.15;;;2.33;;
46815;SDS011;32787;53.316;8.670;2023-07-20T06:11:03;8.15;;;2.47;;
46815;SDS011;32787;53.316;8.670;2023-07-20T06:13:28;5.18;;;2.20;;
46815;SDS011;32787;53.316;8.670;2023-07-20T06:15:54;6.32;;;2.22;;
46815;SDS011;32787;53.316;8.670;2023-07-20T06:18:22;4.22;;;1.80;;
46815;SDS011;32787;53.316;8.670;2023-07-20T06:20:48;5.63;;;1.92;;
46815;SDS011;32787;53.316;8.670;2023-07-20T06:23:18;4.38;;;1.75;;
46815;SDS011;32787;53.316;8.670;2023-07-20T06:25:44;4.25;;;1.83;;
46815;SDS011;32787;53.316;8.670;2023-07-20T06:28:10;5.65;;;2.10;;
46815;SDS011;32787;53.316;8.670;2023-07-20T06:30:36;4.82;;;1.70;;
46815;SDS011;32787;53.316;8.670;2023-07-20T06:33:01;5.22;;;1.70;;
46815;SDS011;32787;53.316;8.670;2023-07-20T06:35:27;4.35;;;1.80;;
46815;SDS011;32787;53.316;8.670;2023-07-20T06:37:53;4.93;;;1.80;;
46815;SDS011;32787;53.316;8.670;2023-07-20T06:40:18;6.00;;;2.03;;
46815;SDS011;32787;53.316;8.670;2023-07-20T06:42:44;3.47;;;1.80;;
46815;SDS011;32787;53.316;8.670;2023-07-20T06:45:10;5.70;;;2.00;;
46815;SDS011;32787;53.316;8.670;2023-07-20T06:47:39;5.65;;;2.03;;
46815;SDS011;32787;53.316;8.670;2023-07-20T06:50:05;5.40;;;1.70;;
46815;SDS011;32787;53.316;8.670;2023-07-20T06:52:32;5.82;;;1.90;;
46815;SDS011;32787;53.316;8.670;2023-07-20T06:54:58;7.60;;;1.90;;
46815;SDS011;32787;53.316;8.670;2023-07-20T06:57:23;5.88;;;2.05;;
46815;SDS011;32787;53.316;8.670;2023-07-20T06:59:49;5.53;;;1.50;;
46815;SDS011;32787;53.316;8.670;2023-07-20T07:02:15;4.03;;;1.50;;
46815;SDS011;32787;53.316;8.670;2023-07-20T07:04:41;9.43;;;1.58;;
46815;SDS011;32787;53.316;8.670;2023-07-20T07:07:07;4.20;;;1.40;;
46815;SDS011;32787;53.316;8.670;2023-07-20T07:09:33;4.30;;;1.42;;
46815;SDS011;32787;53.316;8.670;2023-07-20T07:11:59;4.28;;;1.52;;
46815;SDS011;32787;53.316;8.670;2023-07-20T07:14:25;6.55;;;1.80;;
46815;SDS011;32787;53.316;8.670;2023-07-20T07:16:50;6.53;;;1.77;;
46815;SDS011;32787;53.316;8.670;2023-07-20T07:19:16;6.53;;;1.40;;
46815;SDS011;32787;53.316;8.670;2023-07-20T07:21:42;4.32;;;1.70;;
46815;SDS011;32787;53.316;8.670;2023-07-20T07:24:07;6.38;;;1.75;;
46815;SDS011;32787;53.316;8.670;2023-07-20T07:26:34;4.82;;;1.52;;
46815;SDS011;32787;53.316;8.670;2023-07-20T07:29:01;7.32;;;1.80;;
46815;SDS011;32787;53.316;8.670;2023-07-20T07:31:28;4.80;;;1.83;;
46815;SDS011;32787;53.316;8.670;2023-07-20T07:33:55;9.23;;;2.40;;
46815;SDS011;32787;53.316;8.670;2023-07-20T07:36:21;6.55;;;2.20;;
46815;SDS011;32787;53.316;8.670;2023-07-20T07:38:46;8.05;;;2.25;;
46815;SDS011;32787;53.316;8.670;2023-07-20T07:41:12;7.47;;;2.30;;
46815;SDS011;32787;53.316;8.670;2023-07-20T07:43:38;7.28;;;2.58;;
46815;SDS011;32787;53.316;8.670;2023-07-20T07:46:04;7.72;;;2.92;;
46815;SDS011;32787;53.316;8.670;2023-07-20T07:48:30;6.75;;;2.53;;
46815;SDS011;32787;53.316;8.670;2023-07-20T07:50:55;9.30;;;2.70;;
46815;SDS011;32787;53.316;8.670;2023-07-20T07:53:21;8.27;;;2.45;;
46815;SDS011;32787;53.316;8.670;2023-07-20T07:55:50;8.73;;;2.45;;
46815;SDS011;32787;53.316;8.670;2023-07-20T07:58:15;11.45;;;2.35;;
46815;SDS011;32787;53.316;8.670;2023-07-20T08:00:41;7.40;;;2.40;;
46815;SDS011;32787;53.316;8.670;2023-07-20T08:03:08;8.50;;;2.42;;
46815;SDS011;32787;53.316;8.670;2023-07-20T08:05:34;9.15;;;2.40;;
46815;SDS011;32787;53.316;8.670;2023-07-20T08:08:02;8.13;;;2.28;;
46815;SDS011;32787;53.316;8.670;2023-07-20T08:10:31;6.68;;;2.25;;
46815;SDS011;32787;53.316;8.670;2023-07-20T08:12:57;8.52;;;2.80;;
46815;SDS011;32787;53.316;8.670;2023-07-20T08:15:22;8.38;;;2.10;;
46815;SDS011;32787;53.316;8.670;2023-07-20T08:17:48;6.40;;;1.98;;
46815;SDS011;32787;53.316;8.670;2023-07-20T08:20:16;7.70;;;2.65;;
46815;SDS011;32787;53.316;8.670;2023-07-20T08:22:42;8.88;;;2.10;;
46815;SDS011;32787;53.316;8.670;2023-07-20T08:25:08;6.63;;;2.10;;
46815;SDS011;32787;53.316;8.670;2023-07-20T08:27:34;10.38;;;2.70;;
46815;SDS011;32787;53.316;8.670;2023-07-20T08:30:00;9.63;;;2.38;;
46815;SDS011;32787;53.316;8.670;2023-07-20T08:32:26;7.40;;;2.25;;
46815;SDS011;32787;53.316;8.670;2023-07-20T08:34:52;9.95;;;2.35;;
46815;SDS011;32787;53.316;8.670;2023-07-20T08:37:18;9.63;;;2.60;;
46815;SDS011;32787;53.316;8.670;2023-07-20T08:39:43;9.73;;;2.42;;
46815;SDS011;32787;53.316;8.670;2023-07-20T08:42:09;9.15;;;2.40;;
46815;SDS011;32787;53.316;8.670;2023-07-20T08:44:36;6.90;;;2.08;;
46815;SDS011;32787;53.316;8.670;2023-07-20T08:47:04;10.25;;;2.30;;
46815;SDS011;32787;53.316;8.670;2023-07-20T08:49:32;7.80;;;2.38;;
46815;SDS011;32787;53.316;8.670;2023-07-20T08:51:58;6.55;;;2.15;;
46815;SDS011;32787;53.316;8.670;2023-07-20T08:54:26;7.18;;;1.90;;
46815;SDS011;32787;53.316;8.670;2023-07-20T08:59:22;6.63;;;2.00;;
46815;SDS011;32787;53.316;8.670;2023-07-20T09:01:49;6.40;;;1.80;;
46815;SDS011;32787;53.316;8.670;2023-07-20T09:04:19;7.20;;;2.00;;
46815;SDS011;32787;53.316;8.670;2023-07-20T09:06:44;5.97;;;1.70;;
46815;SDS011;32787;53.316;8.670;2023-07-20T09:09:10;7.05;;;1.85;;
46815;SDS011;32787;53.316;8.670;2023-07-20T09:11:36;7.25;;;1.90;;
46815;SDS011;32787;53.316;8.670;2023-07-20T09:14:11;6.75;;;2.03;;
46815;SDS011;32787;53.316;8.670;2023-07-20T09:16:52;8.77;;;2.25;;
46815;SDS011;32787;53.316;8.670;2023-07-20T09:19:20;5.95;;;2.10;;
46815;SDS011;32787;53.316;8.670;2023-07-20T09:21:46;7.75;;;2.05;;
46815;SDS011;32787;53.316;8.670;2023-07-20T09:24:17;6.40;;;2.00;;
46815;SDS011;32787;53.316;8.670;2023-07-20T09:26:44;6.45;;;2.08;;
46815;SDS011;32787;53.316;8.670;2023-07-20T09:29:13;9.40;;;2.40;;
46815;SDS011;32787;53.316;8.670;2023-07-20T09:31:39;6.75;;;1.98;;
46815;SDS011;32787;53.316;8.670;2023-07-20T09:34:05;7.53;;;2.10;;
46815;SDS011;32787;53.316;8.670;2023-07-20T09:36:35;5.57;;;1.50;;
46815;SDS011;32787;53.316;8.670;2023-07-20T09:41:28;8.77;;;2.00;;
46815;SDS011;32787;53.316;8.670;2023-07-20T09:43:54;11.80;;;1.85;;
46815;SDS011;32787;53.316;8.670;2023-07-20T09:46:20;6.20;;;1.67;;
46815;SDS011;32787;53.316;8.670;2023-07-20T09:48:52;5.03;;;1.60;;
46815;SDS011;32787;53.316;8.670;2023-07-20T09:51:20;7.07;;;1.52;;
46815;SDS011;32787;53.316;8.670;2023-07-20T09:53:47;5.32;;;1.50;;
46815;SDS011;32787;53.316;8.670;2023-07-20T09:56:15;5.75;;;1.30;;
46815;SDS011;32787;53.316;8.670;2023-07-20T09:58:43;7.30;;;1.60;;
46815;SDS011;32787;53.316;8.670;2023-07-20T10:01:10;9.10;;;1.58;;
46815;SDS011;32787;53.316;8.670;2023-07-20T10:03:39;5.78;;;1.08;;
46815;SDS011;32787;53.316;8.670;2023-07-20T10:06:08;5.60;;;1.70;;
46815;SDS011;32787;53.316;8.670;2023-07-20T10:08:41;6.20;;;1.38;;
46815;SDS011;32787;53.316;8.670;2023-07-20T10:11:08;6.88;;;1.60;;
46815;SDS011;32787;53.316;8.670;2023-07-20T10:13:37;4.85;;;1.25;;
46815;SDS011;32787;53.316;8.670;2023-07-20T10:16:11;4.47;;;1.02;;
46815;SDS011;32787;53.316;8.670;2023-07-20T10:21:32;4.57;;;1.00;;
46815;SDS011;32787;53.316;8.670;2023-07-20T10:24:02;8.20;;;1.10;;
46815;SDS011;32787;53.316;8.670;2023-07-20T10:26:29;9.07;;;1.30;;
46815;SDS011;32787;53.316;8.670;2023-07-20T10:28:54;5.45;;;0.75;;
46815;SDS011;32787;53.316;8.670;2023-07-20T10:31:22;5.05;;;0.90;;
46815;SDS011;32787;53.316;8.670;2023-07-20T10:33:48;4.65;;;1.00;;
46815;SDS011;32787;53.316;8.670;2023-07-20T10:36:15;5.07;;;1.00;;
46815;SDS011;32787;53.316;8.670;2023-07-20T10:38:41;3.13;;;0.82;;
46815;SDS011;32787;53.316;8.670;2023-07-20T10:43:47;5.05;;;1.05;;
46815;SDS011;32787;53.316;8.670;2023-07-20T10:46:13;3.25;;;0.82;;
46815;SDS011;32787;53.316;8.670;2023-07-20T10:51:24;4.43;;;0.82;;
46815;SDS011;32787;53.316;8.670;2023-07-20T10:53:50;6.47;;;1.30;;
46815;SDS011;32787;53.316;8.670;2023-07-20T10:56:21;4.43;;;1.00;;
46815;SDS011;32787;53.316;8.670;2023-07-20T10:58:48;6.60;;;0.95;;
46815;SDS011;32787;53.316;8.670;2023-07-20T11:01:14;4.30;;;0.85;;
46815;SDS011;32787;53.316;8.670;2023-07-20T11:03:42;6.15;;;0.88;;
46815;SDS011;32787;53.316;8.670;2023-07-20T11:08:57;4.65;;;1.00;;
46815;SDS011;32787;53.316;8.670;2023-07-20T11:11:36;5.60;;;1.20;;
46815;SDS011;32787;53.316;8.670;2023-07-20T11:14:03;4.47;;;1.00;;
46815;SDS011;32787;53.316;8.670;2023-07-20T11:16:35;2.72;;;0.95;;
46815;SDS011;32787;53.316;8.670;2023-07-20T11:19:05;6.22;;;1.17;;
46815;SDS011;32787;53.316;8.670;2023-07-20T11:21:42;5.40;;;1.13;;
46815;SDS011;32787;53.316;8.670;2023-07-20T11:24:09;5.65;;;1.23;;
46815;SDS011;32787;53.316;8.670;2023-07-20T11:29:12;4.97;;;0.60;;
46815;SDS011;32787;53.316;8.670;2023-07-20T11:31:38;6.10;;;1.02;;
46815;SDS011;32787;53.316;8.670;2023-07-20T11:34:07;3.38;;;0.90;;
46815;SDS011;32787;53.316;8.670;2023-07-20T11:36:36;5.10;;;0.80;;
46815;SDS011;32787;53.316;8.670;2023-07-20T11:39:02;6.78;;;0.90;;
46815;SDS011;32787;53.316;8.670;2023-07-20T11:41:29;4.07;;;1.08;;
46815;SDS011;32787;53.316;8.670;2023-07-20T11:43:56;4.00;;;0.80;;
46815;SDS011;32787;53.316;8.670;2023-07-20T11:46:22;6.10;;;1.42;;
46815;SDS011;32787;53.316;8.670;2023-07-20T11:48:48;6.28;;;0.90;;
46815;SDS011;32787;53.316;8.670;2023-07-20T11:51:14;6.47;;;1.10;;
46815;SDS011;32787;53.316;8.670;2023-07-20T11:53:41;5.95;;;0.82;;
46815;SDS011;32787;53.316;8.670;2023-07-20T11:56:08;4.28;;;0.85;;
46815;SDS011;32787;53.316;8.670;2023-07-20T11:58:34;4.65;;;0.90;;
46815;SDS011;32787;53.316;8.670;2023-07-20T12:01:00;2.50;;;0.75;;
46815;SDS011;32787;53.316;8.670;2023-07-20T12:03:27;6.43;;;1.20;;
46815;SDS011;32787;53.316;8.670;2023-07-20T12:05:52;8.32;;;1.20;;
46815;SDS011;32787;53.316;8.670;2023-07-20T12:08:18;5.40;;;1.38;;
46815;SDS011;32787;53.316;8.670;2023-07-20T12:10:44;6.78;;;1.30;;
46815;SDS011;32787;53.316;8.670;2023-07-20T12:13:10;4.72;;;0.90;;
46815;SDS011;32787;53.316;8.670;2023-07-20T12:15:37;8.65;;;1.30;;
46815;SDS011;32787;53.316;8.670;2023-07-20T12:18:02;3.72;;;0.82;;
46815;SDS011;32787;53.316;8.670;2023-07-20T12:22:56;6.00;;;0.77;;
46815;SDS011;32787;53.316;8.670;2023-07-20T12:25:31;4.25;;;0.75;;
46815;SDS011;32787;53.316;8.670;2023-07-20T12:28:00;6.13;;;1.48;;
46815;SDS011;32787;53.316;8.670;2023-07-20T12:30:27;4.22;;;0.80;;
46815;SDS011;32787;53.316;8.670;2023-07-20T12:32:53;5.70;;;0.90;;
46815;SDS011;32787;53.316;8.670;2023-07-20T12:35:19;6.28;;;1.10;;
46815;SDS011;32787;53.316;8.670;2023-07-20T12:37:44;4.85;;;0.93;;
46815;SDS011;32787;53.316;8.670;2023-07-20T12:40:13;4.97;;;0.98;;
46815;SDS011;32787;53.316;8.670;2023-07-20T12:42:39;4.63;;;0.82;;
46815;SDS011;32787;53.316;8.670;2023-07-20T12:45:05;6.35;;;1.10;;
46815;SDS011;32787;53.316;8.670;2023-07-20T12:47:31;5.50;;;1.00;;
46815;SDS011;32787;53.316;8.670;2023-07-20T12:49:56;6.18;;;1.08;;
46815;SDS011;32787;53.316;8.670;2023-07-20T12:52:22;7.47;;;0.98;;
46815;SDS011;32787;53.316;8.670;2023-07-20T12:54:48;4.80;;;0.80;;
46815;SDS011;32787;53.316;8.670;2023-07-20T12:57:13;3.72;;;1.00;;
46815;SDS011;32787;53.316;8.670;2023-07-20T12:59:39;6.97;;;0.93;;
46815;SDS011;32787;53.316;8.670;2023-07-20T13:02:05;4.00;;;0.82;;
46815;SDS011;32787;53.316;8.670;2023-07-20T13:04:31;5.05;;;1.00;;
46815;SDS011;32787;53.316;8.670;2023-07-20T13:06:57;7.40;;;1.40;;
46815;SDS011;32787;53.316;8.670;2023-07-20T13:09:23;5.25;;;1.05;;
46815;SDS011;32787;53.316;8.670;2023-07-20T13:11:50;4.47;;;0.98;;
46815;SDS011;32787;53.316;8.670;2023-07-20T13:14:16;4.93;;;0.98;;
46815;SDS011;32787;53.316;8.670;2023-07-20T13:16:42;5.88;;;0.90;;
46815;SDS011;32787;53.316;8.670;2023-07-20T13:19:07;6.90;;;1.10;;
46815;SDS011;32787;53.316;8.670;2023-07-20T13:21:33;3.67;;;0.95;;
46815;SDS011;32787;53.316;8.670;2023-07-20T13:23:59;5.32;;;0.98;;
46815;SDS011;32787;53.316;8.670;2023-07-20T13:26:24;4.10;;;0.82;;
46815;SDS011;32787;53.316;8.670;2023-07-20T13:28:50;4.38;;;0.80;;
46815;SDS011;32787;53.316;8.670;2023-07-20T13:31:16;5.57;;;1.15;;
46815;SDS011;32787;53.316;8.670;2023-07-20T13:33:42;8.70;;;1.17;;
46815;SDS011;32787;53.316;8.670;2023-07-20T13:36:08;4.75;;;0.90;;
46815;SDS011;32787;53.316;8.670;2023-07-20T13:38:33;9.30;;;0.98;;
46815;SDS011;32787;53.316;8.670;2023-07-20T13:40:59;7.22;;;1.50;;
46815;SDS011;32787;53.316;8.670;2023-07-20T13:43:24;4.75;;;0.88;;
46815;SDS011;32787;53.316;8.670;2023-07-20T13:45:50;4.88;;;1.00;;
46815;SDS011;32787;53.316;8.670;2023-07-20T13:48:16;4.38;;;1.00;;
46815;SDS011;32787;53.316;8.670;2023-07-20T13:50:44;5.80;;;0.85;;
46815;SDS011;32787;53.316;8.670;2023-07-20T13:53:10;4.35;;;1.38;;
46815;SDS011;32787;53.316;8.670;2023-07-20T13:55:36;5.43;;;1.10;;
46815;SDS011;32787;53.316;8.670;2023-07-20T13:58:03;5.20;;;0.80;;
46815;SDS011;32787;53.316;8.670;2023-07-20T14:00:29;6.53;;;1.13;;
46815;SDS011;32787;53.316;8.670;2023-07-20T14:02:58;6.35;;;1.10;;
46815;SDS011;32787;53.316;8.670;2023-07-20T14:05:24;5.22;;;1.35;;
46815;SDS011;32787;53.316;8.670;2023-07-20T14:07:50;5.40;;;0.95;;
46815;SDS011;32787;53.316;8.670;2023-07-20T14:10:16;4.57;;;0.85;;
46815;SDS011;32787;53.316;8.670;2023-07-20T14:12:42;7.45;;;1.15;;
46815;SDS011;32787;53.316;8.670;2023-07-20T14:15:09;4.65;;;1.02;;
46815;SDS011;32787;53.316;8.670;2023-07-20T14:17:35;4.43;;;1.10;;
46815;SDS011;32787;53.316;8.670;2023-07-20T14:20:01;5.43;;;0.93;;
46815;SDS011;32787;53.316;8.670;2023-07-20T14:22:30;4.07;;;1.23;;
46815;SDS011;32787;53.316;8.670;2023-07-20T14:24:56;4.88;;;1.15;;
46815;SDS011;32787;53.316;8.670;2023-07-20T14:27:21;4.75;;;1.00;;
46815;SDS011;32787;53.316;8.670;2023-07-20T14:29:47;7.70;;;1.13;;
46815;SDS011;32787;53.316;8.670;2023-07-20T14:32:13;4.60;;;0.73;;
46815;SDS011;32787;53.316;8.670;2023-07-20T14:34:39;5.88;;;1.10;;
46815;SDS011;32787;53.316;8.670;2023-07-20T14:37:06;8.10;;;1.38;;
46815;SDS011;32787;53.316;8.670;2023-07-20T14:39:32;2.67;;;0.80;;
46815;SDS011;32787;53.316;8.670;2023-07-20T14:41:57;3.63;;;0.80;;
46815;SDS011;32787;53.316;8.670;2023-07-20T14:44:23;3.95;;;1.02;;
46815;SDS011;32787;53.316;8.670;2023-07-20T14:46:49;5.25;;;1.05;;
46815;SDS011;32787;53.316;8.670;2023-07-20T14:49:16;4.53;;;1.10;;
46815;SDS011;32787;53.316;8.670;2023-07-20T14:51:43;4.28;;;1.10;;
46815;SDS011;32787;53.316;8.670;2023-07-20T14:54:12;5.32;;;1.25;;
46815;SDS011;32787;53.316;8.670;2023-07-20T14:56:38;4.57;;;0.95;;
46815;SDS011;32787;53.316;8.670;2023-07-20T14:59:05;5.05;;;0.98;;
46815;SDS011;32787;53.316;8.670;2023-07-20T15:01:31;5.03;;;1.02;;
46815;SDS011;32787;53.316;8.670;2023-07-20T15:03:57;5.10;;;0.82;;
46815;SDS011;32787;53.316;8.670;2023-07-20T15:06:22;5.50;;;1.27;;
46815;SDS011;32787;53.316;8.670;2023-07-20T15:08:48;5.20;;;1.50;;
46815;SDS011;32787;53.316;8.670;2023-07-20T15:11:14;3.58;;;0.95;;
46815;SDS011;32787;53.316;8.670;2023-07-20T15:13:39;6.00;;;1.20;;
46815;SDS011;32787;53.316;8.670;2023-07-20T15:16:07;5.60;;;1.08;;